Time;durP1;ratioP1;P1;durP2;ratioP2;P2;SDS_P1;SDS_P2;PMS_P1;PMS_P2;Temp;Humidity;BMP_temperature;BMP_pressure;BME280_temperature;BME280_humidity;BME280_pressure;Samples;Min_cycle;Max_cycle;Signal;HPM_P1;HPM_P2
2021/11/05 00:00:25;;;;;;;26.33;7.35;;;6.70;99.90;;;;;;5014923;28;20049;-89
2021/11/05 00:02:54;;;;;;;14.68;5.55;;;6.70;99.90;;;;;;4998967;28;20124;-89
2021/11/05 00:05:31;;;;;;;17.77;6.45;;;6.70;99.90;;;;;;4998482;28;20099;-88
2021/11/05 00:07:57;;;;;;;15.63;5.93;;;6.60;99.90;;;;;;5014758;28;20385;-89
2021/11/05 00:10:23;;;;;;;12.70;4.90;;;6.50;99.90;;;;;;5014484;28;20046;-88
2021/11/05 00:12:50;;;;;;;17.17;6.72;;;6.50;99.90;;;;;;5015108;28;20088;-89
2021/11/05 00:15:17;;;;;;;12.85;5.68;;;6.50;99.90;;;;;;5014435;28;20049;-89
2021/11/05 00:17:43;;;;;;;19.02;6.35;;;6.50;99.90;;;;;;5014887;28;20045;-88
2021/11/05 00:20:10;;;;;;;11.02;4.40;;;6.50;99.90;;;;;;4998759;28;20372;-89
2021/11/05 00:22:36;;;;;;;15.50;5.82;;;6.50;99.90;;;;;;4982438;28;20042;-88
2021/11/05 00:25:06;;;;;;;14.98;5.28;;;6.50;99.90;;;;;;4994935;28;20143;-89
2021/11/05 00:27:32;;;;;;;10.57;4.75;;;6.50;99.90;;;;;;4994565;28;20490;-89
2021/11/05 00:29:58;;;;;;;6.68;3.60;;;6.40;99.90;;;;;;4978803;28;20490;-89
2021/11/05 00:32:24;;;;;;;11.90;3.15;;;6.40;99.90;;;;;;4978297;28;20034;-89
2021/11/05 00:34:49;;;;;;;17.05;3.53;;;6.30;99.90;;;;;;5011424;28;20458;-90
2021/11/05 00:37:15;;;;;;;13.70;5.40;;;6.30;99.90;;;;;;5010871;28;20525;-90
2021/11/05 00:39:41;;;;;;;15.00;3.55;;;6.30;99.90;;;;;;5011377;28;20046;-90
2021/11/05 00:42:07;;;;;;;7.40;4.05;;;6.30;99.90;;;;;;4995068;28;20046;-89
2021/11/05 00:44:32;;;;;;;8.65;3.65;;;6.30;99.90;;;;;;4978249;28;20104;-88
2021/11/05 00:46:58;;;;;;;17.50;5.05;;;6.30;99.90;;;;;;4994962;28;20049;-88
2021/11/05 00:49:24;;;;;;;22.55;8.40;;;6.40;99.90;;;;;;4994389;28;20077;-89
2021/11/05 00:51:50;;;;;;;19.10;6.38;;;6.40;99.90;;;;;;4994893;28;20076;-89
2021/11/05 00:54:15;;;;;;;13.07;7.07;;;6.50;99.90;;;;;;4993824;28;20046;-89
2021/11/05 00:56:41;;;;;;;16.25;5.93;;;6.50;99.90;;;;;;4994376;28;20467;-89
2021/11/05 00:59:07;;;;;;;13.40;3.55;;;6.50;99.90;;;;;;4994758;28;20038;-89
2021/11/05 01:01:33;;;;;;;21.63;5.00;;;6.50;99.90;;;;;;5010156;28;20045;-89
2021/11/05 01:03:58;;;;;;;5.45;2.45;;;6.40;99.90;;;;;;5010896;28;20055;-89
2021/11/05 01:06:24;;;;;;;7.35;1.60;;;6.40;99.90;;;;;;4994215;28;20042;-89
2021/11/05 01:08:50;;;;;;;8.90;3.45;;;6.30;99.90;;;;;;4994583;28;20362;-89
2021/11/05 01:11:15;;;;;;;13.70;2.63;;;6.30;99.90;;;;;;4994165;28;20096;-88
2021/11/05 01:13:42;;;;;;;5.90;1.92;;;6.30;99.90;;;;;;4994493;28;20484;-89
2021/11/05 01:16:07;;;;;;;15.27;1.70;;;6.30;99.90;;;;;;4994569;28;20363;-88
2021/11/05 01:18:33;;;;;;;5.90;1.05;;;6.30;99.90;;;;;;5010314;28;20136;-90
2021/11/05 01:20:59;;;;;;;5.63;1.45;;;6.30;99.90;;;;;;4978373;28;20041;-88
2021/11/05 01:23:25;;;;;;;8.20;1.50;;;6.30;99.90;;;;;;4994004;28;20048;-89
2021/11/05 01:25:51;;;;;;;10.77;1.67;;;6.30;99.90;;;;;;4994005;28;20049;-89
2021/11/05 01:28:18;;;;;;;4.43;1.58;;;6.30;99.90;;;;;;5010441;28;20038;-89
2021/11/05 01:30:43;;;;;;;11.82;1.20;;;6.30;99.90;;;;;;4993908;28;20054;-88
2021/11/05 01:33:11;;;;;;;7.68;1.20;;;6.20;99.90;;;;;;5010337;28;20080;-89
2021/11/05 01:35:39;;;;;;;3.70;1.27;;;6.20;99.90;;;;;;4994121;28;20077;-89
2021/11/05 01:38:08;;;;;;;7.03;1.33;;;6.30;99.90;;;;;;4994281;28;20077;-90
2021/11/05 01:40:36;;;;;;;3.30;1.00;;;6.30;99.90;;;;;;5010135;28;20421;-89
2021/11/05 01:43:03;;;;;;;6.88;1.10;;;6.30;99.90;;;;;;4994260;28;20445;-89
2021/11/05 01:45:31;;;;;;;5.53;1.40;;;6.30;99.90;;;;;;4993920;28;20390;-90
2021/11/05 01:47:58;;;;;;;4.55;1.08;;;6.30;99.90;;;;;;4994185;28;20081;-90
2021/11/05 01:50:24;;;;;;;5.40;1.10;;;6.20;99.90;;;;;;5009974;28;20042;-89
2021/11/05 01:52:51;;;;;;;8.63;1.00;;;6.20;99.90;;;;;;5010580;28;20038;-89
2021/11/05 01:55:17;;;;;;;13.93;1.40;;;6.20;99.90;;;;;;4994053;28;20046;-89
2021/11/05 01:57:43;;;;;;;7.30;1.30;;;6.10;99.90;;;;;;4993661;28;20042;-90
2021/11/05 02:00:16;;;;;;;7.97;1.10;;;6.20;99.90;;;;;;4977915;28;20045;-89
2021/11/05 02:02:42;;;;;;;9.10;1.25;;;6.20;99.90;;;;;;5010175;28;20045;-89
2021/11/05 02:05:08;;;;;;;12.93;1.80;;;6.20;99.90;;;;;;4994131;28;20049;-90
2021/11/05 02:07:37;;;;;;;5.70;1.33;;;6.20;99.90;;;;;;4996950;28;20485;-90
2021/11/05 02:10:07;;;;;;;12.48;1.30;;;6.20;99.90;;;;;;4997896;28;20068;-90
2021/11/05 02:12:33;;;;;;;3.15;0.82;;;6.10;99.90;;;;;;4996996;28;20077;-90
2021/11/05 02:15:01;;;;;;;15.65;1.40;;;6.10;99.90;;;;;;5013910;28;20041;-88
2021/11/05 02:17:27;;;;;;;8.35;0.80;;;6.00;99.90;;;;;;5013591;28;20594;-89
2021/11/05 02:19:54;;;;;;;6.75;1.15;;;6.00;99.90;;;;;;4997704;28;20042;-89
2021/11/05 02:22:21;;;;;;;5.05;1.20;;;6.00;99.90;;;;;;5013928;28;20049;-89
2021/11/05 02:24:47;;;;;;;4.82;1.27;;;6.00;99.90;;;;;;4982294;28;20046;-89
2021/11/05 02:27:12;;;;;;;11.25;1.63;;;6.00;99.90;;;;;;5000574;28;20049;-89
2021/11/05 02:29:38;;;;;;;11.50;1.95;;;6.00;99.90;;;;;;5016335;28;20059;-90
2021/11/05 02:32:05;;;;;;;7.78;1.45;;;6.00;99.90;;;;;;5000254;28;20041;-90
2021/11/05 02:34:32;;;;;;;8.48;1.50;;;6.10;99.90;;;;;;5015979;28;20084;-89
2021/11/05 02:36:59;;;;;;;4.82;1.73;;;6.10;99.90;;;;;;5016753;28;20115;-89
2021/11/05 02:39:25;;;;;;;6.15;1.50;;;6.10;99.90;;;;;;5000325;28;20362;-91
2021/11/05 02:41:52;;;;;;;7.05;1.70;;;6.00;99.90;;;;;;5000104;28;20041;-89
2021/11/05 02:44:19;;;;;;;7.95;1.73;;;6.10;99.90;;;;;;4984407;28;20500;-90
2021/11/05 02:46:45;;;;;;;4.65;1.30;;;6.10;99.90;;;;;;5016121;28;20128;-89
2021/11/05 02:49:15;;;;;;;11.88;1.42;;;6.10;99.90;;;;;;5016728;28;20095;-89
2021/11/05 02:51:41;;;;;;;10.38;2.17;;;6.10;99.90;;;;;;5015721;28;20033;-90
2021/11/05 02:54:07;;;;;;;11.48;1.50;;;6.00;99.90;;;;;;5016562;28;20084;-89
2021/11/05 02:56:34;;;;;;;3.90;1.50;;;6.10;99.90;;;;;;5015563;28;20412;-90
2021/11/05 02:58:59;;;;;;;5.43;2.00;;;6.10;99.90;;;;;;5016582;28;20033;-89
2021/11/05 03:01:26;;;;;;;2.80;1.75;;;6.00;99.90;;;;;;5000371;28;20128;-88
2021/11/05 03:03:53;;;;;;;15.90;2.13;;;6.10;99.90;;;;;;5016324;28;20120;-88
2021/11/05 03:06:18;;;;;;;10.40;1.75;;;6.00;99.90;;;;;;5000056;28;20128;-89
2021/11/05 03:08:44;;;;;;;8.07;1.52;;;6.00;99.90;;;;;;4999567;28;20132;-89
2021/11/05 03:11:13;;;;;;;6.20;1.90;;;6.00;99.90;;;;;;5016159;28;20636;-90
2021/11/05 03:13:41;;;;;;;9.32;2.00;;;6.00;99.90;;;;;;4983521;28;20531;-91
2021/11/05 03:16:07;;;;;;;6.47;2.03;;;6.00;99.90;;;;;;5016372;28;20038;-90
2021/11/05 03:18:35;;;;;;;10.15;2.00;;;5.90;99.90;;;;;;4998693;28;20052;-90
2021/11/05 03:21:01;;;;;;;9.35;2.05;;;5.90;99.90;;;;;;5015920;28;20059;-90
2021/11/05 03:23:29;;;;;;;8.77;1.88;;;5.80;99.90;;;;;;5015941;28;20045;-90
2021/11/05 03:25:55;;;;;;;13.65;1.88;;;5.80;99.90;;;;;;4999638;28;20045;-90
2021/11/05 03:28:21;;;;;;;13.30;2.33;;;5.80;99.90;;;;;;4983385;28;20045;-90
2021/11/05 03:30:47;;;;;;;7.53;1.95;;;5.70;99.90;;;;;;5015544;28;20049;-91
2021/11/05 03:33:13;;;;;;;6.28;1.83;;;5.70;99.90;;;;;;4999450;28;20092;-90
2021/11/05 03:35:39;;;;;;;10.93;2.67;;;5.70;99.90;;;;;;4998796;28;20045;-91
2021/11/05 03:38:04;;;;;;;14.82;2.67;;;5.80;99.90;;;;;;4999400;28;20156;-91
2021/11/05 03:40:32;;;;;;;8.75;2.20;;;5.80;99.90;;;;;;4999507;28;20041;-91
2021/11/05 03:42:58;;;;;;;7.35;2.55;;;5.90;99.90;;;;;;4999200;28;20107;-89
2021/11/05 03:45:24;;;;;;;12.98;2.58;;;5.90;99.90;;;;;;4999353;28;20045;-90
2021/11/05 03:47:50;;;;;;;8.00;2.50;;;5.90;99.90;;;;;;4998905;28;20045;-88
2021/11/05 03:50:16;;;;;;;10.05;2.42;;;5.90;99.90;;;;;;5015520;28;20120;-90
2021/11/05 03:52:43;;;;;;;10.20;2.50;;;5.80;99.90;;;;;;4998660;28;20037;-90
2021/11/05 03:55:10;;;;;;;7.30;2.08;;;5.70;99.90;;;;;;5015531;28;20045;-90
2021/11/05 03:57:36;;;;;;;14.30;3.25;;;5.80;99.90;;;;;;5015040;28;20064;-89
2021/11/05 04:00:11;;;;;;;8.00;2.97;;;5.70;99.90;;;;;;4999102;28;20037;-90
2021/11/05 04:02:38;;;;;;;20.17;2.92;;;5.70;99.90;;;;;;4982097;28;20046;-90
2021/11/05 04:05:04;;;;;;;5.82;2.38;;;5.60;99.90;;;;;;4982438;28;20048;-89
2021/11/05 04:07:30;;;;;;;11.75;3.13;;;5.60;99.90;;;;;;4998584;28;20046;-90
2021/11/05 04:09:56;;;;;;;20.10;3.88;;;5.60;99.90;;;;;;4982352;28;20045;-90
2021/11/05 04:12:22;;;;;;;14.50;4.32;;;5.50;99.90;;;;;;4998699;28;20037;-90
2021/11/05 04:14:47;;;;;;;16.50;3.03;;;5.60;99.90;;;;;;4982357;28;20041;-90
2021/11/05 04:17:13;;;;;;;13.40;2.92;;;5.50;99.90;;;;;;4998465;28;20051;-90
2021/11/05 04:19:42;;;;;;;11.05;2.72;;;5.50;99.90;;;;;;4997955;28;20072;-90
2021/11/05 04:22:08;;;;;;;19.08;2.67;;;5.40;99.90;;;;;;4998738;28;20041;-89
2021/11/05 04:24:34;;;;;;;10.82;3.13;;;5.50;99.90;;;;;;4998390;28;20087;-89
2021/11/05 04:27:00;;;;;;;32.17;4.82;;;5.50;99.90;;;;;;5014407;28;20125;-90
2021/11/05 04:29:26;;;;;;;9.88;3.35;;;5.50;99.90;;;;;;5014934;28;20678;-91
2021/11/05 04:31:52;;;;;;;17.75;2.90;;;5.50;99.90;;;;;;5013891;28;20037;-91
2021/11/05 04:34:18;;;;;;;9.57;2.67;;;5.60;99.90;;;;;;5014689;28;20096;-90
2021/11/05 04:36:44;;;;;;;25.58;3.88;;;5.60;99.90;;;;;;4997611;28;20091;-92
2021/11/05 04:39:16;;;;;;;9.23;3.05;;;5.70;99.90;;;;;;5014654;28;20124;-92
2021/11/05 04:41:42;;;;;;;15.80;2.90;;;5.70;99.90;;;;;;5014170;28;20041;-90
2021/11/05 04:44:07;;;;;;;19.77;3.17;;;5.80;99.90;;;;;;4998286;28;20049;-90
2021/11/05 04:46:33;;;;;;;21.70;3.28;;;5.90;99.90;;;;;;4998225;28;20037;-91
2021/11/05 04:48:59;;;;;;;19.65;5.18;;;5.90;99.90;;;;;;5013943;28;20191;-90
2021/11/05 04:51:25;;;;;;;15.40;3.53;;;5.90;99.90;;;;;;4997822;28;20041;-90
2021/11/05 04:53:51;;;;;;;20.85;3.50;;;5.90;99.90;;;;;;5013973;28;20111;-90
2021/11/05 04:56:17;;;;;;;15.70;4.78;;;6.00;99.90;;;;;;5014130;28;20535;-90
2021/11/05 04:58:43;;;;;;;12.13;3.13;;;5.90;99.90;;;;;;5014010;28;20044;-91
2021/11/05 05:01:09;;;;;;;13.50;3.25;;;5.90;99.90;;;;;;5014258;28;20053;-90
2021/11/05 05:03:35;;;;;;;12.25;2.30;;;5.90;99.90;;;;;;4998039;28;20049;-91
2021/11/05 05:06:01;;;;;;;13.63;2.63;;;5.90;99.90;;;;;;4997684;28;20056;-90
2021/11/05 05:08:27;;;;;;;10.27;2.33;;;5.90;99.90;;;;;;5014229;28;20469;-91
2021/11/05 05:10:53;;;;;;;11.48;2.67;;;5.80;99.90;;;;;;4997426;28;20041;-91
2021/11/05 05:13:19;;;;;;;8.82;2.20;;;5.80;99.90;;;;;;5013864;28;20449;-90
2021/11/05 05:15:44;;;;;;;7.13;2.72;;;5.70;99.90;;;;;;5013731;28;20044;-93
2021/11/05 05:18:15;;;;;;;17.00;3.20;;;5.70;99.90;;;;;;4997995;28;20064;-92
2021/11/05 05:20:42;;;;;;;20.17;2.97;;;5.70;99.90;;;;;;4998133;28;20107;-91
2021/11/05 05:23:07;;;;;;;12.35;2.90;;;5.70;99.90;;;;;;5014375;28;20101;-94
2021/11/05 05:25:33;;;;;;;12.25;2.75;;;5.60;99.90;;;;;;4997699;28;20061;-91
2021/11/05 05:27:59;;;;;;;6.32;2.10;;;5.70;99.90;;;;;;4997047;28;20045;-90
2021/11/05 05:30:25;;;;;;;6.07;2.15;;;5.60;99.90;;;;;;5014056;28;20037;-90
2021/11/05 05:32:50;;;;;;;9.18;1.98;;;5.60;99.90;;;;;;4996506;28;20093;-90
2021/11/05 05:35:18;;;;;;;11.68;2.00;;;5.50;99.90;;;;;;4997775;28;20037;-91
2021/11/05 05:37:44;;;;;;;10.35;1.60;;;5.50;99.90;;;;;;5013310;28;20076;-90
2021/11/05 05:40:11;;;;;;;10.38;1.67;;;5.50;99.90;;;;;;5013954;28;20500;-91
2021/11/05 05:42:37;;;;;;;8.02;1.58;;;5.50;99.90;;;;;;4985115;28;20114;-91
2021/11/05 05:45:04;;;;;;;4.55;2.20;;;5.60;99.90;;;;;;5017264;28;20038;-90
2021/11/05 05:47:30;;;;;;;9.52;2.58;;;5.60;99.90;;;;;;5017948;28;20354;-91
2021/11/05 05:49:56;;;;;;;4.50;2.03;;;5.50;99.90;;;;;;5017487;28;20037;-90
2021/11/05 05:52:22;;;;;;;14.90;2.03;;;5.60;99.90;;;;;;5017491;28;20044;-91
2021/11/05 05:54:48;;;;;;;12.30;2.33;;;5.60;99.90;;;;;;5017148;28;20052;-91
2021/11/05 05:57:13;;;;;;;13.77;2.25;;;5.70;99.90;;;;;;5017570;28;20041;-91
2021/11/05 05:59:39;;;;;;;8.63;1.75;;;5.60;99.90;;;;;;5017895;28;20422;-91
2021/11/05 06:02:05;;;;;;;11.80;1.80;;;5.60;99.90;;;;;;5017227;28;20041;-92
2021/11/05 06:04:32;;;;;;;20.35;3.55;;;5.60;99.90;;;;;;5001276;28;20041;-91
2021/11/05 06:06:57;;;;;;;8.90;1.80;;;5.60;99.90;;;;;;5017193;28;20131;-92
2021/11/05 06:09:23;;;;;;;14.57;1.52;;;5.60;99.90;;;;;;5017114;28;20076;-91
2021/11/05 06:11:49;;;;;;;5.15;1.20;;;5.60;99.90;;;;;;5000558;28;20045;-90
2021/11/05 06:14:14;;;;;;;11.30;2.00;;;5.60;99.90;;;;;;5001217;28;20045;-90
2021/11/05 06:16:41;;;;;;;8.52;1.48;;;5.60;99.90;;;;;;5017478;28;20041;-92
2021/11/05 06:19:07;;;;;;;8.38;1.63;;;5.60;99.90;;;;;;5016561;28;20466;-90
2021/11/05 06:21:33;;;;;;;15.07;1.95;;;5.60;99.90;;;;;;5001012;28;20136;-91
2021/11/05 06:23:59;;;;;;;12.02;1.70;;;5.60;99.90;;;;;;5016833;28;20051;-91
2021/11/05 06:26:25;;;;;;;6.95;1.60;;;5.70;99.90;;;;;;5013467;28;20390;-90
2021/11/05 06:28:51;;;;;;;10.63;1.90;;;5.60;99.90;;;;;;5013481;28;20045;-90
2021/11/05 06:31:17;;;;;;;10.55;2.00;;;5.70;99.90;;;;;;4997309;28;20045;-91
2021/11/05 06:33:43;;;;;;;7.22;2.10;;;5.80;99.90;;;;;;4997441;28;20124;-90
2021/11/05 06:36:09;;;;;;;7.38;2.95;;;5.70;99.90;;;;;;4996849;28;20049;-91
2021/11/05 06:38:35;;;;;;;9.13;1.52;;;5.70;99.90;;;;;;5013681;28;20037;-91
2021/11/05 06:41:00;;;;;;;6.40;1.70;;;5.70;99.90;;;;;;5013329;28;20128;-91
2021/11/05 06:43:26;;;;;;;9.45;1.95;;;5.70;99.90;;;;;;5013380;28;20038;-90
2021/11/05 06:45:52;;;;;;;7.63;1.85;;;5.70;99.90;;;;;;5013226;28;20042;-90
2021/11/05 06:48:18;;;;;;;8.93;1.58;;;5.70;99.90;;;;;;4997061;28;20084;-90
2021/11/05 06:50:44;;;;;;;5.57;1.55;;;5.70;99.90;;;;;;4997175;28;20044;-91
2021/11/05 06:53:11;;;;;;;14.05;1.38;;;5.80;99.90;;;;;;5011760;28;20585;-90
2021/11/05 06:55:37;;;;;;;9.98;1.63;;;5.70;99.90;;;;;;5013470;28;20096;-91
2021/11/05 06:58:04;;;;;;;12.88;1.92;;;5.70;99.90;;;;;;5013008;28;20488;-89
2021/11/05 07:00:31;;;;;;;13.05;2.28;;;5.80;99.90;;;;;;4996757;28;20041;-89
2021/11/05 07:02:59;;;;;;;8.55;2.05;;;5.80;99.90;;;;;;4996445;28;20053;-88
2021/11/05 07:05:25;;;;;;;8.15;1.85;;;6.00;99.90;;;;;;5013112;28;20060;-90
2021/11/05 07:07:51;;;;;;;7.15;1.77;;;6.00;99.90;;;;;;4996399;28;20149;-91
2021/11/05 07:10:17;;;;;;;10.85;2.00;;;6.10;99.90;;;;;;4996987;28;20065;-92
2021/11/05 07:12:43;;;;;;;11.50;2.17;;;6.20;99.90;;;;;;5012729;28;20066;-91
2021/11/05 07:15:10;;;;;;;15.52;2.10;;;6.30;99.90;;;;;;5012604;28;20100;-92
2021/11/05 07:17:37;;;;;;;13.85;2.05;;;6.40;99.90;;;;;;5012950;28;20054;-91
2021/11/05 07:20:05;;;;;;;26.75;2.40;;;6.50;99.90;;;;;;4979925;28;20046;-91
2021/11/05 07:22:31;;;;;;;4.47;2.15;;;6.60;99.90;;;;;;5012642;28;20053;-91
2021/11/05 07:24:57;;;;;;;15.80;2.10;;;6.50;99.90;;;;;;4996806;28;20042;-90
2021/11/05 07:27:23;;;;;;;18.00;2.30;;;6.50;99.90;;;;;;5016121;28;20051;-91
2021/11/05 07:29:49;;;;;;;17.40;3.55;;;6.70;99.90;;;;;;5000817;28;20041;-91
2021/11/05 07:32:15;;;;;;;21.85;2.70;;;6.70;99.90;;;;;;4999248;28;20485;-91
2021/11/05 07:34:41;;;;;;;14.82;1.88;;;6.80;99.90;;;;;;4999675;28;20045;-90
2021/11/05 07:37:13;;;;;;;7.45;1.73;;;6.80;99.90;;;;;;5015544;28;20049;-91
2021/11/05 07:39:39;;;;;;;20.08;2.22;;;6.90;99.90;;;;;;5015868;28;20049;-92
2021/11/05 07:42:04;;;;;;;12.35;2.45;;;7.00;99.90;;;;;;5015613;28;20044;-93
2021/11/05 07:44:30;;;;;;;17.83;2.75;;;7.10;99.90;;;;;;4999656;28;20067;-91
2021/11/05 07:46:57;;;;;;;9.73;2.83;;;7.10;99.90;;;;;;5015257;28;20048;-90
2021/11/05 07:49:22;;;;;;;13.63;3.30;;;7.20;99.90;;;;;;4999175;28;20045;-93
2021/11/05 07:51:49;;;;;;;27.33;6.57;;;7.20;99.90;;;;;;5015577;28;20382;-93
2021/11/05 07:54:15;;;;;;;16.77;5.32;;;7.40;99.90;;;;;;4999173;28;20041;-92
2021/11/05 07:56:40;;;;;;;15.50;6.10;;;7.40;99.90;;;;;;5015057;28;20091;-93
2021/11/05 07:59:06;;;;;;;18.65;5.15;;;7.50;99.90;;;;;;4998734;28;20128;-93
2021/11/05 08:01:32;;;;;;;18.02;5.25;;;7.60;99.90;;;;;;5032894;28;20033;-93
2021/11/05 08:03:58;;;;;;;11.68;2.47;;;7.80;99.90;;;;;;4998069;28;20060;-93
2021/11/05 08:06:24;;;;;;;7.95;2.22;;;7.90;99.90;;;;;;4982602;28;20034;-93
2021/11/05 08:08:50;;;;;;;5.03;1.10;;;8.00;99.90;;;;;;5015141;28;20073;-92
2021/11/05 08:11:16;;;;;;;6.22;0.70;;;8.20;99.90;;;;;;4998664;28;20087;-90
2021/11/05 08:13:42;;;;;;;9.43;0.63;;;8.30;99.90;;;;;;5015188;28;20045;-92
2021/11/05 08:16:09;;;;;;;7.80;0.60;;;8.50;99.90;;;;;;4982142;28;20080;-90
2021/11/05 08:18:35;;;;;;;7.65;1.40;;;8.60;99.90;;;;;;5015001;28;20052;-91
2021/11/05 08:21:00;;;;;;;9.77;2.35;;;8.70;99.90;;;;;;5014394;28;20629;-91
2021/11/05 08:23:26;;;;;;;11.15;2.00;;;8.80;99.90;;;;;;5015275;28;20037;-92
2021/11/05 08:25:52;;;;;;;9.93;2.45;;;8.90;99.90;;;;;;4998446;28;20037;-91
2021/11/05 08:28:19;;;;;;;6.40;1.15;;;9.00;99.90;;;;;;5014587;28;20045;-90
2021/11/05 08:30:47;;;;;;;5.10;0.88;;;9.00;99.90;;;;;;5014594;28;20175;-89
2021/11/05 08:33:13;;;;;;;4.68;1.38;;;9.10;99.90;;;;;;4997611;28;20389;-90
2021/11/05 08:35:41;;;;;;;5.25;1.13;;;9.30;99.90;;;;;;5015044;28;20437;-92
2021/11/05 08:38:14;;;;;;;8.73;1.08;;;9.40;99.90;;;;;;5014234;28;20041;-91
2021/11/05 08:40:48;;;;;;;7.72;1.58;;;9.40;99.90;;;;;;5014469;28;20042;-91
2021/11/05 08:43:18;;;;;;;6.93;1.30;;;9.50;99.90;;;;;;4997638;28;20060;-89
2021/11/05 08:45:43;;;;;;;7.63;1.33;;;9.50;99.90;;;;;;4997040;28;20049;-89
2021/11/05 08:48:09;;;;;;;7.00;1.08;;;9.70;99.90;;;;;;5012241;28;20037;-89
2021/11/05 08:50:35;;;;;;;4.15;1.25;;;9.70;99.90;;;;;;5012658;28;20041;-90
2021/11/05 08:53:02;;;;;;;5.95;1.58;;;9.70;99.90;;;;;;4995924;28;20380;-89
2021/11/05 08:55:28;;;;;;;4.22;0.95;;;9.80;99.90;;;;;;5012436;28;20087;-89
2021/11/05 08:57:54;;;;;;;1.98;0.77;;;9.80;99.90;;;;;;5012405;28;20127;-90
2021/11/05 09:00:24;;;;;;;1.85;0.50;;;9.80;99.90;;;;;;4995809;28;20049;-91
2021/11/05 09:02:50;;;;;;;6.43;1.55;;;9.80;99.90;;;;;;4996382;28;20038;-90
2021/11/05 09:05:17;;;;;;;11.77;2.13;;;9.80;99.90;;;;;;5014010;28;20059;-91
2021/11/05 09:07:43;;;;;;;6.20;2.83;;;9.90;99.90;;;;;;5014152;28;20056;-91
2021/11/05 09:10:10;;;;;;;5.55;2.42;;;10.00;99.90;;;;;;4997670;28;20053;-91
2021/11/05 09:12:38;;;;;;;13.45;3.40;;;10.00;99.90;;;;;;4997864;28;20381;-91
2021/11/05 09:15:06;;;;;;;14.20;3.53;;;10.00;99.90;;;;;;4997419;28;20138;-91
2021/11/05 09:17:32;;;;;;;8.35;2.13;;;10.10;99.90;;;;;;4998019;28;20191;-92
2021/11/05 09:19:58;;;;;;;9.90;1.95;;;10.10;99.90;;;;;;4998105;28;20472;-92
2021/11/05 09:22:23;;;;;;;5.28;1.50;;;10.20;99.90;;;;;;4997402;28;20060;-91
2021/11/05 09:24:50;;;;;;;6.50;1.60;;;10.30;99.90;;;;;;5014395;28;20044;-91
2021/11/05 09:27:17;;;;;;;3.13;1.25;;;10.40;99.90;;;;;;4997734;28;20163;-91
2021/11/05 09:29:42;;;;;;;3.03;0.73;;;10.40;99.90;;;;;;4998128;28;20048;-91
2021/11/05 09:32:08;;;;;;;1.73;0.77;;;10.50;99.90;;;;;;5013491;28;20046;-91
2021/11/05 09:34:34;;;;;;;6.97;0.70;;;10.60;99.90;;;;;;4997650;28;20100;-91
2021/11/05 09:37:02;;;;;;;1.85;0.80;;;10.70;99.90;;;;;;5013900;28;20132;-92
2021/11/05 09:39:30;;;;;;;3.85;1.10;;;10.80;99.90;;;;;;4982132;28;20257;-90
2021/11/05 09:41:58;;;;;;;8.98;0.50;;;10.90;99.90;;;;;;4998015;28;20045;-90
2021/11/05 09:44:24;;;;;;;4.90;1.55;;;11.00;99.90;;;;;;4981516;28;20045;-90
2021/11/05 09:46:50;;;;;;;1.27;0.50;;;11.00;99.90;;;;;;4997809;28;20041;-90
2021/11/05 09:49:16;;;;;;;2.88;0.82;;;11.00;99.90;;;;;;5013806;28;20041;-91
2021/11/05 09:51:41;;;;;;;5.95;0.65;;;11.00;99.90;;;;;;5013657;28;20041;-92
2021/11/05 09:54:09;;;;;;;5.05;0.40;;;11.00;99.90;;;;;;5013112;28;20079;-90
2021/11/05 09:56:35;;;;;;;8.35;0.73;;;11.10;99.90;;;;;;4997839;28;20085;-90
2021/11/05 09:59:01;;;;;;;2.55;0.40;;;11.20;99.90;;;;;;4981151;28;20041;-90
2021/11/05 10:01:27;;;;;;;5.03;1.08;;;11.20;99.90;;;;;;5013446;28;20554;-91
2021/11/05 10:03:52;;;;;;;5.30;0.73;;;11.20;99.90;;;;;;5014205;28;20491;-90
2021/11/05 10:06:22;;;;;;;6.30;0.75;;;11.30;99.90;;;;;;4997018;28;20052;-91
2021/11/05 10:08:53;;;;;;;7.05;0.77;;;11.40;99.90;;;;;;5013747;28;20084;-90
2021/11/05 10:11:24;;;;;;;9.95;0.77;;;11.40;99.90;;;;;;5013588;28;20144;-90
2021/11/05 10:13:51;;;;;;;4.85;0.82;;;11.40;99.90;;;;;;5013719;28;20124;-90
2021/11/05 10:16:19;;;;;;;2.13;0.80;;;11.40;99.90;;;;;;4996991;28;20045;-90
2021/11/05 10:19:05;;;;;;;2.40;0.60;;;11.50;99.90;;;;;;4981304;28;20081;-90
2021/11/05 10:21:43;;;;;;;6.13;0.65;;;11.50;99.90;;;;;;5013808;28;20541;-90
2021/11/05 10:24:18;;;;;;;5.05;0.80;;;11.60;99.90;;;;;;5013493;28;20046;-90
2021/11/05 10:26:46;;;;;;;8.38;0.95;;;11.60;99.90;;;;;;5013855;28;20085;-90
2021/11/05 10:29:29;;;;;;;5.07;0.80;;;11.60;99.90;;;;;;5017159;28;20052;-91
2021/11/05 10:32:03;;;;;;;6.22;0.95;;;11.60;99.90;;;;;;5017670;28;20447;-91
2021/11/05 10:34:49;;;;;;;4.03;0.70;;;11.70;99.90;;;;;;5001362;28;20049;-90
2021/11/05 10:37:29;;;;;;;3.40;0.88;;;11.70;99.90;;;;;;5000948;28;20041;-91
2021/11/05 10:39:56;;;;;;;7.25;0.88;;;11.70;99.90;;;;;;5017860;28;20045;-91
2021/11/05 10:42:48;;;;;;;4.72;0.68;;;11.80;99.90;;;;;;5017452;28;20054;-91
2021/11/05 10:45:19;;;;;;;5.53;0.85;;;11.80;99.90;;;;;;4997972;28;20068;-90
2021/11/05 10:47:54;;;;;;;5.22;0.75;;;11.80;99.90;;;;;;5000906;28;20437;-89
2021/11/05 10:50:31;;;;;;;9.73;1.30;;;11.80;99.90;;;;;;5001140;28;20072;-90
2021/11/05 10:53:18;;;;;;;4.43;0.77;;;11.80;99.90;;;;;;5000778;28;20047;-90
2021/11/05 10:55:54;;;;;;;5.72;0.40;;;11.90;99.90;;;;;;4999510;28;20559;-93
2021/11/05 10:58:38;;;;;;;5.20;0.85;;;11.90;99.90;;;;;;5015116;28;20052;-92
2021/11/05 11:01:05;;;;;;;3.30;1.10;;;11.90;99.90;;;;;;5015739;28;20045;-89
2021/11/05 11:03:38;;;;;;;6.18;0.70;;;11.80;99.90;;;;;;5015162;28;20147;-88
2021/11/05 11:06:04;;;;;;;4.07;0.52;;;11.70;99.90;;;;;;5015829;28;20381;-89
2021/11/05 11:08:33;;;;;;;2.78;0.32;;;11.70;99.90;;;;;;5015481;28;20033;-89
2021/11/05 11:11:21;;;;;;;17.67;1.77;;;11.60;99.90;;;;;;5033600;28;20045;-90
2021/11/05 11:13:52;;;;;;;7.63;0.98;;;11.60;99.90;;;;;;5021996;28;20045;-88
2021/11/05 11:16:27;;;;;;;7.30;0.50;;;11.50;99.90;;;;;;5015699;28;20037;-89
2021/11/05 11:18:55;;;;;;;3.80;0.65;;;11.40;99.90;;;;;;5015585;28;20496;-90
2021/11/05 11:21:23;;;;;;;5.75;0.90;;;11.20;99.90;;;;;;5015032;28;20500;-88
2021/11/05 11:23:49;;;;;;;3.08;1.08;;;11.10;99.90;;;;;;5015675;28;20381;-89
2021/11/05 11:26:15;;;;;;;4.57;0.63;;;11.10;99.90;;;;;;5014870;28;20229;-89
2021/11/05 11:28:42;;;;;;;10.68;1.30;;;11.10;99.90;;;;;;4999387;28;20116;-89
2021/11/05 11:31:08;;;;;;;2.55;0.70;;;11.20;99.90;;;;;;5015288;28;20466;-88
2021/11/05 11:33:34;;;;;;;5.70;1.05;;;11.30;99.90;;;;;;5015033;28;20076;-89
2021/11/05 11:36:00;;;;;;;6.00;1.15;;;11.30;99.90;;;;;;5015669;28;20041;-90
2021/11/05 11:38:27;;;;;;;5.60;0.73;;;11.40;99.90;;;;;;5013957;28;20037;-90
2021/11/05 11:40:53;;;;;;;3.20;0.40;;;11.50;99.90;;;;;;5015325;28;20052;-91
2021/11/05 11:43:22;;;;;;;7.07;0.55;;;11.80;99.90;;;;;;5014890;28;20037;-91
2021/11/05 11:45:54;;;;;;;4.05;0.73;;;12.00;99.90;;;;;;5014918;28;20435;-91
2021/11/05 11:48:46;;;;;;;11.70;1.08;;;12.00;99.90;;;;;;5014982;28;20420;-89
2021/11/05 11:51:33;;;;;;;6.20;0.93;;;11.40;99.90;;;;;;5015763;28;20073;-91
2021/11/05 11:53:59;;;;;;;4.50;1.10;;;10.60;99.90;;;;;;5015376;28;20053;-92
2021/11/05 11:56:31;;;;;;;15.27;1.90;;;10.30;99.90;;;;;;5014718;28;20497;-90
2021/11/05 11:59:00;;;;;;;15.88;2.20;;;10.10;99.90;;;;;;5015044;28;20085;-91
2021/11/05 12:01:28;;;;;;;5.57;0.88;;;10.10;99.90;;;;;;4998584;28;20083;-91
2021/11/05 12:03:59;;;;;;;5.82;0.82;;;10.00;99.90;;;;;;5015224;28;20112;-92
2021/11/05 12:06:25;;;;;;;5.50;0.40;;;10.00;99.90;;;;;;5015213;28;20056;-91
2021/11/05 12:08:51;;;;;;;5.70;0.70;;;10.00;99.90;;;;;;4998692;28;20049;-92
2021/11/05 12:11:27;;;;;;;5.55;0.47;;;10.00;99.90;;;;;;5015024;28;20124;-92
2021/11/05 12:14:11;;;;;;;4.25;0.65;;;10.10;99.90;;;;;;5015398;28;20376;-92
2021/11/05 12:16:38;;;;;;;3.58;0.50;;;10.20;99.90;;;;;;5015020;28;20124;-92
2021/11/05 12:19:04;;;;;;;8.70;0.95;;;10.20;99.90;;;;;;5015173;28;20042;-93
2021/11/05 12:21:38;;;;;;;3.95;0.95;;;10.30;99.90;;;;;;5014762;28;20041;-93
2021/11/05 12:24:16;;;;;;;7.88;1.05;;;10.30;99.90;;;;;;5013922;28;20051;-92
2021/11/05 12:26:58;;;;;;;7.18;1.23;;;10.30;99.90;;;;;;5014346;28;20057;-91
2021/11/05 12:29:32;;;;;;;18.23;3.65;;;10.20;99.90;;;;;;5014652;28;20047;-91
2021/11/05 12:32:22;;;;;;;13.05;2.25;;;10.30;99.90;;;;;;5014629;28;20037;-92
2021/11/05 12:35:06;;;;;;;12.68;3.17;;;10.30;99.90;;;;;;5014690;28;20050;-92
2021/11/05 12:37:43;;;;;;;26.25;4.47;;;10.40;99.90;;;;;;4997815;28;20128;-93
2021/11/05 12:40:21;;;;;;;9.13;2.20;;;10.60;99.90;;;;;;5014571;28;20045;-93
2021/11/05 12:42:56;;;;;;;23.73;3.70;;;10.80;99.90;;;;;;5014681;28;20037;-91
2021/11/05 12:45:43;;;;;;;7.63;0.90;;;11.00;99.90;;;;;;5013778;28;20081;-91
2021/11/05 12:48:09;;;;;;;4.70;0.90;;;11.10;99.90;;;;;;5014628;28;20052;-92
2021/11/05 12:50:35;;;;;;;5.88;1.15;;;11.10;99.90;;;;;;5014012;28;20045;-93
2021/11/05 12:53:08;;;;;;;7.38;0.70;;;11.20;99.90;;;;;;5013800;28;20088;-93